sensor_id;sensor_type;location;lat;lon;timestamp;pressure;altitude;pressure_sealevel;temperature;humidity
24558;BME280;12726;49.148;8.582;2024-02-26T00:02:30;98448.78;;;7.56;77.80
24558;BME280;12726;49.148;8.582;2024-02-26T00:05:16;98459.09;;;7.64;77.54
24558;BME280;12726;49.148;8.582;2024-02-26T00:08:01;98472.16;;;7.61;77.49
24558;BME280;12726;49.148;8.582;2024-02-26T00:10:46;98476.50;;;7.50;78.63
24558;BME280;12726;49.148;8.582;2024-02-26T00:13:33;98474.44;;;7.40;79.71
24558;BME280;12726;49.148;8.582;2024-02-26T00:16:19;98478.91;;;7.35;80.47
24558;BME280;12726;49.148;8.582;2024-02-26T00:19:04;98481.72;;;7.28;80.86
24558;BME280;12726;49.148;8.582;2024-02-26T00:21:49;98477.66;;;7.26;80.87
24558;BME280;12726;49.148;8.582;2024-02-26T00:24:35;98468.72;;;7.20;81.24
24558;BME280;12726;49.148;8.582;2024-02-26T00:27:20;98483.38;;;7.18;81.40
24558;BME280;12726;49.148;8.582;2024-02-26T00:30:08;98485.50;;;7.16;81.67
24558;BME280;12726;49.148;8.582;2024-02-26T00:32:53;98484.09;;;7.13;81.44
24558;BME280;12726;49.148;8.582;2024-02-26T00:35:38;98492.34;;;7.12;81.67
24558;BME280;12726;49.148;8.582;2024-02-26T00:38:24;98490.13;;;7.20;81.05
24558;BME280;12726;49.148;8.582;2024-02-26T00:41:09;98487.59;;;7.42;79.74
24558;BME280;12726;49.148;8.582;2024-02-26T00:43:54;98477.25;;;7.45;79.61
24558;BME280;12726;49.148;8.582;2024-02-26T00:46:41;98491.38;;;7.58;78.69
24558;BME280;12726;49.148;8.582;2024-02-26T00:49:27;98478.56;;;7.60;78.79
24558;BME280;12726;49.148;8.582;2024-02-26T00:52:12;98498.75;;;7.51;79.49
24558;BME280;12726;49.148;8.582;2024-02-26T00:54:57;98494.34;;;7.44;79.89
24558;BME280;12726;49.148;8.582;2024-02-26T00:57:42;98498.41;;;7.47;80.08
24558;BME280;12726;49.148;8.582;2024-02-26T01:00:28;98515.78;;;7.44;80.90
24558;BME280;12726;49.148;8.582;2024-02-26T01:03:14;98510.97;;;7.46;80.28
24558;BME280;12726;49.148;8.582;2024-02-26T01:06:00;98504.09;;;7.51;79.44
24558;BME280;12726;49.148;8.582;2024-02-26T01:08:45;98502.19;;;7.63;77.54
24558;BME280;12726;49.148;8.582;2024-02-26T01:11:30;98517.28;;;7.69;78.12
24558;BME280;12726;49.148;8.582;2024-02-26T01:14:16;98498.66;;;7.74;77.68
24558;BME280;12726;49.148;8.582;2024-02-26T01:17:01;98505.59;;;7.75;78.92
24558;BME280;12726;49.148;8.582;2024-02-26T01:19:48;98503.75;;;7.75;78.81
24558;BME280;12726;49.148;8.582;2024-02-26T01:22:33;98509.25;;;7.69;80.89
24558;BME280;12726;49.148;8.582;2024-02-26T01:25:18;98491.97;;;7.60;81.34
24558;BME280;12726;49.148;8.582;2024-02-26T01:28:04;98519.44;;;7.55;83.54
24558;BME280;12726;49.148;8.582;2024-02-26T01:30:49;98502.09;;;7.58;81.98
24558;BME280;12726;49.148;8.582;2024-02-26T01:33:35;98507.63;;;7.68;81.58
24558;BME280;12726;49.148;8.582;2024-02-26T01:36:22;98501.72;;;7.66;81.66
24558;BME280;12726;49.148;8.582;2024-02-26T01:39:07;98503.22;;;7.62;81.06
24558;BME280;12726;49.148;8.582;2024-02-26T01:41:55;98497.22;;;7.55;83.07
24558;BME280;12726;49.148;8.582;2024-02-26T01:44:40;98505.38;;;7.48;84.25
24558;BME280;12726;49.148;8.582;2024-02-26T01:47:27;98511.09;;;7.52;83.77
24558;BME280;12726;49.148;8.582;2024-02-26T01:50:13;98513.38;;;7.60;85.08
24558;BME280;12726;49.148;8.582;2024-02-26T01:53:00;98520.09;;;8.52;77.65
24558;BME280;12726;49.148;8.582;2024-02-26T01:55:46;98521.06;;;8.63;77.89
24558;BME280;12726;49.148;8.582;2024-02-26T01:58:32;98517.38;;;8.69;79.74
24558;BME280;12726;49.148;8.582;2024-02-26T02:01:18;98522.84;;;8.41;84.35
24558;BME280;12726;49.148;8.582;2024-02-26T02:04:05;98534.69;;;8.28;85.15
24558;BME280;12726;49.148;8.582;2024-02-26T02:06:52;98537.22;;;8.35;82.85
24558;BME280;12726;49.148;8.582;2024-02-26T02:09:38;98543.13;;;8.20;85.94
24558;BME280;12726;49.148;8.582;2024-02-26T02:12:24;98529.47;;;8.05;87.19
24558;BME280;12726;49.148;8.582;2024-02-26T02:15:09;98529.19;;;7.90;89.40
24558;BME280;12726;49.148;8.582;2024-02-26T02:17:55;98531.13;;;7.77;91.29
24558;BME280;12726;49.148;8.582;2024-02-26T02:20:42;98535.81;;;7.70;93.00
24558;BME280;12726;49.148;8.582;2024-02-26T02:23:27;98524.56;;;7.57;94.08
24558;BME280;12726;49.148;8.582;2024-02-26T02:26:13;98521.88;;;7.57;94.42
24558;BME280;12726;49.148;8.582;2024-02-26T02:28:59;98524.81;;;7.55;95.36
24558;BME280;12726;49.148;8.582;2024-02-26T02:31:45;98533.78;;;7.49;96.57
24558;BME280;12726;49.148;8.582;2024-02-26T02:34:31;98527.03;;;7.46;97.42
24558;BME280;12726;49.148;8.582;2024-02-26T02:37:19;98528.34;;;7.44;97.95
24558;BME280;12726;49.148;8.582;2024-02-26T02:40:06;98527.09;;;7.35;99.33
24558;BME280;12726;49.148;8.582;2024-02-26T02:42:51;98529.19;;;7.33;98.79
24558;BME280;12726;49.148;8.582;2024-02-26T02:45:36;98532.91;;;7.32;99.53
24558;BME280;12726;49.148;8.582;2024-02-26T02:48:21;98525.25;;;7.24;100.00
24558;BME280;12726;49.148;8.582;2024-02-26T02:51:07;98533.44;;;7.17;100.00
24558;BME280;12726;49.148;8.582;2024-02-26T02:53:54;98538.44;;;7.14;100.00
24558;BME280;12726;49.148;8.582;2024-02-26T02:56:39;98546.91;;;7.11;100.00
24558;BME280;12726;49.148;8.582;2024-02-26T02:59:25;98545.19;;;7.16;100.00
24558;BME280;12726;49.148;8.582;2024-02-26T03:02:12;98541.47;;;7.17;100.00
24558;BME280;12726;49.148;8.582;2024-02-26T03:04:57;98531.13;;;7.09;100.00
24558;BME280;12726;49.148;8.582;2024-02-26T03:07:43;98535.28;;;7.05;100.00
24558;BME280;12726;49.148;8.582;2024-02-26T03:10:29;98539.72;;;6.99;100.00
24558;BME280;12726;49.148;8.582;2024-02-26T03:13:15;98530.19;;;6.92;100.00
24558;BME280;12726;49.148;8.582;2024-02-26T03:16:04;98538.72;;;6.89;100.00
24558;BME280;12726;49.148;8.582;2024-02-26T03:18:49;98530.53;;;6.84;100.00
24558;BME280;12726;49.148;8.582;2024-02-26T03:21:37;98530.22;;;6.80;100.00
24558;BME280;12726;49.148;8.582;2024-02-26T03:24:25;98521.59;;;6.78;100.00
24558;BME280;12726;49.148;8.582;2024-02-26T03:27:11;98517.53;;;6.76;100.00
24558;BME280;12726;49.148;8.582;2024-02-26T03:29:57;98516.97;;;6.74;100.00
24558;BME280;12726;49.148;8.582;2024-02-26T03:32:42;98512.66;;;6.73;100.00
24558;BME280;12726;49.148;8.582;2024-02-26T03:35:28;98507.22;;;6.67;100.00
24558;BME280;12726;49.148;8.582;2024-02-26T03:38:13;98514.06;;;6.63;100.00
24558;BME280;12726;49.148;8.582;2024-02-26T03:40:59;98502.78;;;6.61;100.00
24558;BME280;12726;49.148;8.582;2024-02-26T03:43:45;98501.63;;;6.57;100.00
24558;BME280;12726;49.148;8.582;2024-02-26T03:46:31;98500.22;;;6.55;100.00
24558;BME280;12726;49.148;8.582;2024-02-26T03:49:16;98501.75;;;6.51;100.00
24558;BME280;12726;49.148;8.582;2024-02-26T03:52:02;98503.81;;;6.49;100.00
24558;BME280;12726;49.148;8.582;2024-02-26T03:54:47;98491.75;;;6.46;100.00
24558;BME280;12726;49.148;8.582;2024-02-26T03:57:32;98494.06;;;6.43;100.00
24558;BME280;12726;49.148;8.582;2024-02-26T04:00:19;98481.41;;;6.38;100.00
24558;BME280;12726;49.148;8.582;2024-02-26T04:03:05;98475.47;;;6.36;100.00
24558;BME280;12726;49.148;8.582;2024-02-26T04:05:50;98469.31;;;6.36;100.00
24558;BME280;12726;49.148;8.582;2024-02-26T04:08:36;98474.31;;;6.32;100.00
24558;BME280;12726;49.148;8.582;2024-02-26T04:11:22;98462.56;;;6.33;100.00
24558;BME280;12726;49.148;8.582;2024-02-26T04:14:07;98457.47;;;6.32;100.00
24558;BME280;12726;49.148;8.582;2024-02-26T04:16:54;98458.53;;;6.31;100.00
24558;BME280;12726;49.148;8.582;2024-02-26T04:19:39;98452.59;;;6.28;100.00
24558;BME280;12726;49.148;8.582;2024-02-26T04:22:24;98450.94;;;6.27;100.00
24558;BME280;12726;49.148;8.582;2024-02-26T04:25:10;98452.00;;;6.26;100.00
24558;BME280;12726;49.148;8.582;2024-02-26T04:27:55;98458.38;;;6.25;100.00
24558;BME280;12726;49.148;8.582;2024-02-26T04:30:40;98458.16;;;6.27;100.00
24558;BME280;12726;49.148;8.582;2024-02-26T04:33:27;98446.66;;;6.26;100.00
24558;BME280;12726;49.148;8.582;2024-02-26T04:36:13;98446.41;;;6.28;100.00
24558;BME280;12726;49.148;8.582;2024-02-26T04:38:59;98449.91;;;6.28;100.00
24558;BME280;12726;49.148;8.582;2024-02-26T04:41:44;98450.94;;;6.27;100.00
24558;BME280;12726;49.148;8.582;2024-02-26T04:44:29;98456.28;;;6.27;100.00
24558;BME280;12726;49.148;8.582;2024-02-26T04:47:15;98461.41;;;6.29;100.00
24558;BME280;12726;49.148;8.582;2024-02-26T04:50:02;98470.25;;;6.29;100.00
24558;BME280;12726;49.148;8.582;2024-02-26T04:52:47;98468.16;;;6.32;100.00
24558;BME280;12726;49.148;8.582;2024-02-26T04:55:35;98469.75;;;6.33;100.00
24558;BME280;12726;49.148;8.582;2024-02-26T04:58:20;98470.59;;;6.33;100.00
24558;BME280;12726;49.148;8.582;2024-02-26T05:01:05;98470.59;;;6.33;100.00
24558;BME280;12726;49.148;8.582;2024-02-26T05:03:51;98478.38;;;6.35;100.00
24558;BME280;12726;49.148;8.582;2024-02-26T05:06:38;98476.28;;;6.37;100.00
24558;BME280;12726;49.148;8.582;2024-02-26T05:09:23;98478.38;;;6.35;100.00
24558;BME280;12726;49.148;8.582;2024-02-26T05:12:08;98485.81;;;6.33;100.00
24558;BME280;12726;49.148;8.582;2024-02-26T05:14:53;98488.47;;;6.33;100.00
24558;BME280;12726;49.148;8.582;2024-02-26T05:17:38;98487.44;;;6.34;100.00
24558;BME280;12726;49.148;8.582;2024-02-26T05:20:24;98500.56;;;6.35;100.00
24558;BME280;12726;49.148;8.582;2024-02-26T05:23:11;98502.66;;;6.33;100.00
24558;BME280;12726;49.148;8.582;2024-02-26T05:25:56;98506.28;;;6.39;100.00
24558;BME280;12726;49.148;8.582;2024-02-26T05:28:41;98507.78;;;6.35;100.00
24558;BME280;12726;49.148;8.582;2024-02-26T05:31:26;98507.44;;;6.31;100.00
24558;BME280;12726;49.148;8.582;2024-02-26T05:34:12;98508.69;;;6.28;100.00
24558;BME280;12726;49.148;8.582;2024-02-26T05:36:58;98505.69;;;6.25;100.00
24558;BME280;12726;49.148;8.582;2024-02-26T05:39:44;98505.09;;;6.23;100.00
24558;BME280;12726;49.148;8.582;2024-02-26T05:42:30;98508.81;;;6.22;100.00
24558;BME280;12726;49.148;8.582;2024-02-26T05:45:15;98517.63;;;6.22;100.00
24558;BME280;12726;49.148;8.582;2024-02-26T05:48:00;98521.34;;;6.21;100.00
24558;BME280;12726;49.148;8.582;2024-02-26T05:50:47;98524.41;;;6.25;100.00
24558;BME280;12726;49.148;8.582;2024-02-26T05:53:32;98526.00;;;6.26;100.00
24558;BME280;12726;49.148;8.582;2024-02-26T05:56:20;98535.66;;;6.27;100.00
24558;BME280;12726;49.148;8.582;2024-02-26T05:59:05;98537.28;;;6.28;100.00
24558;BME280;12726;49.148;8.582;2024-02-26T06:01:50;98532.97;;;6.27;100.00
24558;BME280;12726;49.148;8.582;2024-02-26T06:04:36;98543.22;;;6.30;100.00
24558;BME280;12726;49.148;8.582;2024-02-26T06:07:21;98550.19;;;6.31;100.00
24558;BME280;12726;49.148;8.582;2024-02-26T06:10:07;98549.59;;;6.29;100.00
24558;BME280;12726;49.148;8.582;2024-02-26T06:12:54;98554.72;;;6.31;100.00
24558;BME280;12726;49.148;8.582;2024-02-26T06:15:39;98553.53;;;6.26;100.00
24558;BME280;12726;49.148;8.582;2024-02-26T06:18:24;98562.38;;;6.27;100.00
24558;BME280;12726;49.148;8.582;2024-02-26T06:21:10;98559.47;;;6.28;100.00
24558;BME280;12726;49.148;8.582;2024-02-26T06:23:57;98560.28;;;6.29;100.00
24558;BME280;12726;49.148;8.582;2024-02-26T06:26:43;98555.16;;;6.27;100.00
24558;BME280;12726;49.148;8.582;2024-02-26T06:29:29;98562.16;;;6.28;100.00
24558;BME280;12726;49.148;8.582;2024-02-26T06:32:15;98572.25;;;6.26;100.00
24558;BME280;12726;49.148;8.582;2024-02-26T06:35:01;98568.63;;;6.21;100.00
24558;BME280;12726;49.148;8.582;2024-02-26T06:37:50;98578.41;;;6.27;100.00
24558;BME280;12726;49.148;8.582;2024-02-26T06:40:36;98583.19;;;6.25;100.00
24558;BME280;12726;49.148;8.582;2024-02-26T06:43:22;98583.97;;;6.25;100.00
24558;BME280;12726;49.148;8.582;2024-02-26T06:46:08;98588.06;;;6.28;100.00
24558;BME280;12726;49.148;8.582;2024-02-26T06:48:54;98585.97;;;6.30;100.00
24558;BME280;12726;49.148;8.582;2024-02-26T06:51:39;98590.63;;;6.35;100.00
24558;BME280;12726;49.148;8.582;2024-02-26T06:54:24;98591.81;;;6.39;100.00
24558;BME280;12726;49.148;8.582;2024-02-26T06:57:10;98590.75;;;6.40;100.00
24558;BME280;12726;49.148;8.582;2024-02-26T06:59:55;98599.13;;;6.43;100.00
24558;BME280;12726;49.148;8.582;2024-02-26T07:02:43;98600.53;;;6.46;100.00
24558;BME280;12726;49.148;8.582;2024-02-26T07:05:29;98599.25;;;6.48;100.00
24558;BME280;12726;49.148;8.582;2024-02-26T07:08:14;98607.47;;;6.47;100.00
24558;BME280;12726;49.148;8.582;2024-02-26T07:11:00;98604.97;;;6.52;100.00
24558;BME280;12726;49.148;8.582;2024-02-26T07:13:45;98614.63;;;6.53;100.00
24558;BME280;12726;49.148;8.582;2024-02-26T07:16:30;98610.09;;;6.53;100.00
24558;BME280;12726;49.148;8.582;2024-02-26T07:19:17;98614.72;;;6.58;100.00
24558;BME280;12726;49.148;8.582;2024-02-26T07:22:02;98619.59;;;6.61;100.00
24558;BME280;12726;49.148;8.582;2024-02-26T07:24:47;98620.88;;;6.58;100.00
24558;BME280;12726;49.148;8.582;2024-02-26T07:27:32;98620.66;;;6.60;100.00
24558;BME280;12726;49.148;8.582;2024-02-26T07:30:18;98629.50;;;6.60;100.00
24558;BME280;12726;49.148;8.582;2024-02-26T07:33:03;98616.91;;;6.61;100.00
24558;BME280;12726;49.148;8.582;2024-02-26T07:35:50;98624.72;;;6.62;100.00
24558;BME280;12726;49.148;8.582;2024-02-26T07:38:37;98618.81;;;6.60;100.00
24558;BME280;12726;49.148;8.582;2024-02-26T07:41:22;98632.50;;;6.64;100.00
24558;BME280;12726;49.148;8.582;2024-02-26T07:44:08;98628.00;;;6.64;100.00
24558;BME280;12726;49.148;8.582;2024-02-26T07:46:53;98628.31;;;6.68;100.00
24558;BME280;12726;49.148;8.582;2024-02-26T07:49:39;98628.69;;;6.72;100.00
24558;BME280;12726;49.148;8.582;2024-02-26T07:52:26;98631.47;;;6.77;100.00
24558;BME280;12726;49.148;8.582;2024-02-26T07:55:11;98617.78;;;6.85;100.00
24558;BME280;12726;49.148;8.582;2024-02-26T07:57:56;98627.31;;;6.92;100.00
24558;BME280;12726;49.148;8.582;2024-02-26T08:00:42;98636.25;;;6.98;100.00
24558;BME280;12726;49.148;8.582;2024-02-26T08:03:27;98621.50;;;7.07;100.00
24558;BME280;12726;49.148;8.582;2024-02-26T08:06:13;98621.25;;;7.20;100.00
24558;BME280;12726;49.148;8.582;2024-02-26T08:08:59;98623.56;;;7.28;100.00
24558;BME280;12726;49.148;8.582;2024-02-26T08:11:45;98629.03;;;7.33;100.00
24558;BME280;12726;49.148;8.582;2024-02-26T08:14:30;98619.03;;;7.29;100.00
24558;BME280;12726;49.148;8.582;2024-02-26T08:17:16;98619.13;;;7.34;100.00
24558;BME280;12726;49.148;8.582;2024-02-26T08:20:02;98618.78;;;7.42;100.00
24558;BME280;12726;49.148;8.582;2024-02-26T08:22:47;98625.06;;;7.47;100.00
24558;BME280;12726;49.148;8.582;2024-02-26T08:25:34;98626.78;;;7.54;100.00
24558;BME280;12726;49.148;8.582;2024-02-26T08:28:19;98625.28;;;7.58;100.00
24558;BME280;12726;49.148;8.582;2024-02-26T08:31:04;98620.59;;;7.65;100.00
24558;BME280;12726;49.148;8.582;2024-02-26T08:33:50;98623.97;;;7.72;100.00
24558;BME280;12726;49.148;8.582;2024-02-26T08:36:36;98634.78;;;7.77;100.00
24558;BME280;12726;49.148;8.582;2024-02-26T08:39:21;98641.84;;;7.83;100.00
24558;BME280;12726;49.148;8.582;2024-02-26T08:42:08;98630.53;;;7.93;100.00
24558;BME280;12726;49.148;8.582;2024-02-26T08:44:53;98644.13;;;8.03;100.00
24558;BME280;12726;49.148;8.582;2024-02-26T08:47:39;98644.41;;;8.18;100.00
24558;BME280;12726;49.148;8.582;2024-02-26T08:50:25;98644.00;;;8.38;100.00
24558;BME280;12726;49.148;8.582;2024-02-26T08:53:10;98650.84;;;8.45;100.00
24558;BME280;12726;49.148;8.582;2024-02-26T08:55:55;98649.38;;;8.54;100.00
24558;BME280;12726;49.148;8.582;2024-02-26T08:58:45;98645.81;;;8.49;100.00
24558;BME280;12726;49.148;8.582;2024-02-26T09:01:32;98655.31;;;8.56;100.00
24558;BME280;12726;49.148;8.582;2024-02-26T09:04:17;98651.84;;;8.73;100.00
24558;BME280;12726;49.148;8.582;2024-02-26T09:07:03;98658.13;;;8.78;100.00
24558;BME280;12726;49.148;8.582;2024-02-26T09:09:48;98658.69;;;8.80;100.00
24558;BME280;12726;49.148;8.582;2024-02-26T09:12:33;98656.81;;;8.81;100.00
24558;BME280;12726;49.148;8.582;2024-02-26T09:15:20;98669.25;;;8.87;100.00
24558;BME280;12726;49.148;8.582;2024-02-26T09:18:06;98673.25;;;8.84;100.00
24558;BME280;12726;49.148;8.582;2024-02-26T09:20:51;98670.94;;;8.76;100.00
24558;BME280;12726;49.148;8.582;2024-02-26T09:23:37;98675.72;;;8.57;100.00
24558;BME280;12726;49.148;8.582;2024-02-26T09:26:23;98676.56;;;8.58;100.00
24558;BME280;12726;49.148;8.582;2024-02-26T09:29:08;98667.09;;;8.55;100.00
24558;BME280;12726;49.148;8.582;2024-02-26T09:31:55;98672.72;;;8.54;100.00
24558;BME280;12726;49.148;8.582;2024-02-26T09:34:40;98676.69;;;8.51;100.00
24558;BME280;12726;49.148;8.582;2024-02-26T09:37:26;98679.69;;;8.55;100.00
24558;BME280;12726;49.148;8.582;2024-02-26T09:40:11;98687.94;;;8.65;100.00
24558;BME280;12726;49.148;8.582;2024-02-26T09:42:59;98680.22;;;8.85;100.00
24558;BME280;12726;49.148;8.582;2024-02-26T09:45:45;98670.63;;;9.06;100.00
24558;BME280;12726;49.148;8.582;2024-02-26T09:48:33;98680.38;;;9.12;100.00
24558;BME280;12726;49.148;8.582;2024-02-26T09:51:19;98676.53;;;9.41;100.00
24558;BME280;12726;49.148;8.582;2024-02-26T09:54:09;98677.00;;;9.55;100.00
24558;BME280;12726;49.148;8.582;2024-02-26T09:56:57;98679.38;;;9.73;100.00
24558;BME280;12726;49.148;8.582;2024-02-26T09:59:45;98687.09;;;9.87;100.00
24558;BME280;12726;49.148;8.582;2024-02-26T10:02:33;98691.56;;;9.81;100.00
24558;BME280;12726;49.148;8.582;2024-02-26T10:05:19;98684.41;;;9.87;100.00
24558;BME280;12726;49.148;8.582;2024-02-26T10:08:06;98682.78;;;9.86;100.00
24558;BME280;12726;49.148;8.582;2024-02-26T10:10:54;98674.19;;;9.89;100.00
24558;BME280;12726;49.148;8.582;2024-02-26T10:13:40;98691.91;;;9.85;100.00
24558;BME280;12726;49.148;8.582;2024-02-26T10:16:25;98685.72;;;9.46;100.00
24558;BME280;12726;49.148;8.582;2024-02-26T10:22:01;98698.31;;;9.62;100.00
24558;BME280;12726;49.148;8.582;2024-02-26T10:24:47;98706.44;;;9.67;100.00
24558;BME280;12726;49.148;8.582;2024-02-26T10:27:32;98703.47;;;9.85;100.00
24558;BME280;12726;49.148;8.582;2024-02-26T10:30:18;98700.06;;;9.95;100.00
24558;BME280;12726;49.148;8.582;2024-02-26T10:33:07;98703.03;;;9.93;99.55
24558;BME280;12726;49.148;8.582;2024-02-26T10:35:53;98705.03;;;10.03;98.88
24558;BME280;12726;49.148;8.582;2024-02-26T10:38:41;98698.63;;;10.09;99.36
24558;BME280;12726;49.148;8.582;2024-02-26T10:41:27;98702.94;;;10.10;98.17
24558;BME280;12726;49.148;8.582;2024-02-26T10:44:12;98705.66;;;10.10;98.53
24558;BME280;12726;49.148;8.582;2024-02-26T10:46:58;98710.66;;;10.23;99.94
24558;BME280;12726;49.148;8.582;2024-02-26T10:49:47;98702.72;;;10.33;97.24
24558;BME280;12726;49.148;8.582;2024-02-26T10:52:33;98716.47;;;10.58;96.45
24558;BME280;12726;49.148;8.582;2024-02-26T10:55:21;98723.13;;;10.51;95.43
24558;BME280;12726;49.148;8.582;2024-02-26T10:58:08;98726.16;;;10.38;96.83
24558;BME280;12726;49.148;8.582;2024-02-26T11:00:56;98725.69;;;10.41;97.44
24558;BME280;12726;49.148;8.582;2024-02-26T11:03:45;98729.03;;;10.53;97.17
24558;BME280;12726;49.148;8.582;2024-02-26T11:06:30;98725.28;;;10.54;96.45
24558;BME280;12726;49.148;8.582;2024-02-26T11:09:19;98729.00;;;10.75;95.19
24558;BME280;12726;49.148;8.582;2024-02-26T11:12:08;98731.53;;;10.86;94.01
24558;BME280;12726;49.148;8.582;2024-02-26T11:14:55;98730.22;;;11.21;92.98
24558;BME280;12726;49.148;8.582;2024-02-26T11:17:42;98728.25;;;11.43;91.73
24558;BME280;12726;49.148;8.582;2024-02-26T11:20:30;98729.53;;;11.35;90.98
24558;BME280;12726;49.148;8.582;2024-02-26T11:23:17;98731.34;;;11.30;91.16
24558;BME280;12726;49.148;8.582;2024-02-26T11:26:04;98732.81;;;11.43;90.52
24558;BME280;12726;49.148;8.582;2024-02-26T11:28:52;98735.97;;;12.13;88.50
24558;BME280;12726;49.148;8.582;2024-02-26T11:31:38;98731.06;;;13.44;83.52
24558;BME280;12726;49.148;8.582;2024-02-26T11:34:24;98723.19;;;15.01;77.87
24558;BME280;12726;49.148;8.582;2024-02-26T11:37:11;98723.25;;;16.97;69.75
24558;BME280;12726;49.148;8.582;2024-02-26T11:39:59;98723.94;;;17.53;63.17
24558;BME280;12726;49.148;8.582;2024-02-26T11:42:44;98718.47;;;17.86;61.10
24558;BME280;12726;49.148;8.582;2024-02-26T11:45:50;98694.25;;;18.53;59.06
24558;BME280;12726;49.148;8.582;2024-02-26T11:48:36;98709.84;;;18.11;54.15
24558;BME280;12726;49.148;8.582;2024-02-26T11:51:25;98713.13;;;17.16;56.22
24558;BME280;12726;49.148;8.582;2024-02-26T11:54:10;98710.06;;;16.85;59.14
24558;BME280;12726;49.148;8.582;2024-02-26T11:56:57;98721.13;;;16.51;60.45
24558;BME280;12726;49.148;8.582;2024-02-26T11:59:44;98716.53;;;17.08;59.81
24558;BME280;12726;49.148;8.582;2024-02-26T12:02:44;98723.34;;;17.05;57.61
24558;BME280;12726;49.148;8.582;2024-02-26T12:05:34;98721.63;;;16.96;59.91
24558;BME280;12726;49.148;8.582;2024-02-26T12:08:23;98729.50;;;16.12;61.85
24558;BME280;12726;49.148;8.582;2024-02-26T12:11:14;98721.25;;;15.98;61.44
24558;BME280;12726;49.148;8.582;2024-02-26T12:14:00;98714.31;;;15.58;62.11
24558;BME280;12726;49.148;8.582;2024-02-26T12:16:45;98720.63;;;15.54;63.77
24558;BME280;12726;49.148;8.582;2024-02-26T12:19:32;98726.69;;;15.70;63.38
24558;BME280;12726;49.148;8.582;2024-02-26T12:22:17;98727.25;;;15.66;63.36
24558;BME280;12726;49.148;8.582;2024-02-26T12:25:03;98732.69;;;16.19;61.77
24558;BME280;12726;49.148;8.582;2024-02-26T12:27:49;98734.31;;;17.51;59.10
24558;BME280;12726;49.148;8.582;2024-02-26T12:30:35;98732.22;;;18.08;55.48
24558;BME280;12726;49.148;8.582;2024-02-26T12:33:20;98724.78;;;17.35;54.67
24558;BME280;12726;49.148;8.582;2024-02-26T12:36:07;98720.84;;;17.60;55.37
24558;BME280;12726;49.148;8.582;2024-02-26T12:38:52;98737.03;;;17.19;54.46
24558;BME280;12726;49.148;8.582;2024-02-26T12:41:38;98737.69;;;16.92;54.70
24558;BME280;12726;49.148;8.582;2024-02-26T12:44:24;98735.72;;;16.36;54.71
24558;BME280;12726;49.148;8.582;2024-02-26T12:47:10;98734.44;;;16.29;55.21
24558;BME280;12726;49.148;8.582;2024-02-26T12:50:00;98737.34;;;16.14;55.46
24558;BME280;12726;49.148;8.582;2024-02-26T12:52:47;98738.59;;;15.74;56.45
24558;BME280;12726;49.148;8.582;2024-02-26T12:55:33;98740.56;;;16.16;56.53
24558;BME280;12726;49.148;8.582;2024-02-26T12:58:21;98747.66;;;16.35;54.95
24558;BME280;12726;49.148;8.582;2024-02-26T13:01:14;98740.28;;;16.41;56.63
24558;BME280;12726;49.148;8.582;2024-02-26T13:03:59;98745.63;;;16.70;56.32
24558;BME280;12726;49.148;8.582;2024-02-26T13:06:50;98744.16;;;16.11;55.84
24558;BME280;12726;49.148;8.582;2024-02-26T13:09:36;98739.97;;;15.71;57.92
24558;BME280;12726;49.148;8.582;2024-02-26T13:12:22;98741.78;;;15.47;58.59
24558;BME280;12726;49.148;8.582;2024-02-26T13:15:13;98746.34;;;15.56;58.38
24558;BME280;12726;49.148;8.582;2024-02-26T13:18:08;98757.78;;;15.48;58.46
24558;BME280;12726;49.148;8.582;2024-02-26T13:20:54;98758.94;;;15.37;57.83
24558;BME280;12726;49.148;8.582;2024-02-26T13:23:41;98752.88;;;15.55;57.44
24558;BME280;12726;49.148;8.582;2024-02-26T13:26:28;98762.63;;;15.51;56.76
24558;BME280;12726;49.148;8.582;2024-02-26T13:29:17;98766.88;;;15.34;57.27
24558;BME280;12726;49.148;8.582;2024-02-26T13:32:03;98758.63;;;15.44;57.78
24558;BME280;12726;49.148;8.582;2024-02-26T13:34:50;98755.09;;;15.09;58.74
24558;BME280;12726;49.148;8.582;2024-02-26T13:37:35;98760.94;;;14.87;59.38
24558;BME280;12726;49.148;8.582;2024-02-26T13:40:21;98765.63;;;14.72;60.28
24558;BME280;12726;49.148;8.582;2024-02-26T13:43:08;98765.19;;;14.55;60.77
24558;BME280;12726;49.148;8.582;2024-02-26T13:45:53;98757.06;;;14.49;62.73
24558;BME280;12726;49.148;8.582;2024-02-26T13:48:38;98757.34;;;14.53;62.04
24558;BME280;12726;49.148;8.582;2024-02-26T13:51:24;98758.69;;;14.56;62.07
24558;BME280;12726;49.148;8.582;2024-02-26T13:54:09;98764.41;;;14.49;63.18
24558;BME280;12726;49.148;8.582;2024-02-26T13:56:55;98778.75;;;14.44;63.78
24558;BME280;12726;49.148;8.582;2024-02-26T13:59:42;98781.78;;;14.23;64.64
24558;BME280;12726;49.148;8.582;2024-02-26T14:02:27;98782.56;;;14.33;65.32
24558;BME280;12726;49.148;8.582;2024-02-26T14:05:13;98778.59;;;14.05;65.89
24558;BME280;12726;49.148;8.582;2024-02-26T14:07:58;98781.00;;;14.17;65.66
24558;BME280;12726;49.148;8.582;2024-02-26T14:10:43;98768.81;;;14.15;65.23
24558;BME280;12726;49.148;8.582;2024-02-26T14:13:28;98765.53;;;14.23;64.37
24558;BME280;12726;49.148;8.582;2024-02-26T14:16:15;98760.91;;;14.28;64.04
24558;BME280;12726;49.148;8.582;2024-02-26T14:19:00;98758.22;;;14.38;63.98
24558;BME280;12726;49.148;8.582;2024-02-26T14:21:46;98761.72;;;14.29;63.02
24558;BME280;12726;49.148;8.582;2024-02-26T14:24:31;98760.34;;;14.46;63.70
24558;BME280;12726;49.148;8.582;2024-02-26T14:27:16;98760.63;;;14.45;63.23
24558;BME280;12726;49.148;8.582;2024-02-26T14:30:06;98762.78;;;14.43;62.88
24558;BME280;12726;49.148;8.582;2024-02-26T14:32:53;98760.91;;;14.38;63.73
24558;BME280;12726;49.148;8.582;2024-02-26T14:35:38;98761.97;;;14.37;64.10
24558;BME280;12726;49.148;8.582;2024-02-26T14:38:23;98762.88;;;14.13;63.81
24558;BME280;12726;49.148;8.582;2024-02-26T14:41:09;98773.41;;;14.14;64.76
24558;BME280;12726;49.148;8.582;2024-02-26T14:43:55;98768.31;;;14.02;64.06
24558;BME280;12726;49.148;8.582;2024-02-26T14:46:40;98783.50;;;13.98;64.61